Terminal Aerodrome Forecast
Issued by NWS Caribou, ME

Home | Current Version | Previous Version | Text Only | Print | Product List | Glossary On
Versions: 1 2 3 4 5 6 7 8 9 10 11 12 13 14 15 16 17 18
000
FTUS41 KCAR 022320
TAFCAR
TAF
KCAR 022320Z 0300/0324 25013G21KT P6SM BKN070
     FM030800 24006KT P6SM BKN030
     FM031200 28012KT P6SM BKN040
     FM031800 29012G20KT P6SM FEW050 SCT200=

USA.gov is the U.S. government's official web portal to all federal, state and local government web resources and services.